Terminal Aerodrome Forecast
Issued by NWS Bismarck, ND

Home | Current Version | Previous Version | Text Only | Print | Product List | Glossary On
Versions: 1 2 3 4 5 6 7 8 9 10 11 12 13 14 15 16 17 18 19
000
FTUS43 KBIS 271120
TAFISN
TAF
KISN 271120Z 2712/2812 06008KT P6SM VCTS BKN040CB
     FM271800 09007KT P6SM SCT050
     FM272200 10010KT P6SM VCTS BKN050CB OVC080
     FM280000 12012KT P6SM TSRA OVC050CB
     FM280600 25015G25KT P6SM TSRA OVC025CB=

USA.gov is the U.S. government's official web portal to all federal, state and local government web resources and services.